Sharon, Nebraska
Current Conditions -  °F | °C
As of 11:15 PM on Friday 19 Dec 2014 (Local Time) from KEAR Reporting Station
Overcast Overcast  
Wind Chill: 20°   Ceiling: 200
Heat Index: 27°   Visibility: 0.25mi
Dew Point: 25°   Wind: 6mph
Humidity: 93%   Direction: 190°S
Pressure: 30.03"   Gusts: NA
Location:  40.748°N, 98.7791°W
Report Text: KEAR 200515Z 19005KT 1/4SM OVC002 M03/M04 A3003 RMK AO1
Loading
Personal Weather Stations






























Interactive Weather Map New forecast layout! Learn more

10-Day Weather Forecast

Advertisements
Track Severe Weather on mobile